sensor_id;sensor_type;location;lat;lon;timestamp;P1;durP1;ratioP1;P2;durP2;ratioP2
20976;SDS011;10647;51.016;3.720;2022-11-15T00:01:14;29.67;;;18.47;;
20976;SDS011;10647;51.016;3.720;2022-11-15T00:03:37;32.40;;;18.07;;
20976;SDS011;10647;51.016;3.720;2022-11-15T00:06:05;32.10;;;18.20;;
20976;SDS011;10647;51.016;3.720;2022-11-15T00:08:33;34.53;;;18.37;;
20976;SDS011;10647;51.016;3.720;2022-11-15T00:11:01;35.57;;;17.53;;
20976;SDS011;10647;51.016;3.720;2022-11-15T00:13:29;30.77;;;16.53;;
20976;SDS011;10647;51.016;3.720;2022-11-15T00:15:57;30.87;;;16.77;;
20976;SDS011;10647;51.016;3.720;2022-11-15T00:18:28;30.47;;;17.50;;
20976;SDS011;10647;51.016;3.720;2022-11-15T00:21:02;31.37;;;16.77;;
20976;SDS011;10647;51.016;3.720;2022-11-15T00:23:52;28.70;;;16.90;;
20976;SDS011;10647;51.016;3.720;2022-11-15T00:26:20;28.80;;;16.70;;
20976;SDS011;10647;51.016;3.720;2022-11-15T00:28:47;29.50;;;16.43;;
20976;SDS011;10647;51.016;3.720;2022-11-15T00:31:15;30.87;;;16.30;;
20976;SDS011;10647;51.016;3.720;2022-11-15T00:33:43;33.93;;;16.43;;
20976;SDS011;10647;51.016;3.720;2022-11-15T00:36:17;28.90;;;17.07;;
20976;SDS011;10647;51.016;3.720;2022-11-15T00:38:44;30.87;;;16.80;;
20976;SDS011;10647;51.016;3.720;2022-11-15T00:41:12;28.50;;;16.67;;
20976;SDS011;10647;51.016;3.720;2022-11-15T00:43:42;30.17;;;16.83;;
20976;SDS011;10647;51.016;3.720;2022-11-15T00:46:13;28.20;;;17.00;;
20976;SDS011;10647;51.016;3.720;2022-11-15T00:48:40;27.70;;;16.57;;
20976;SDS011;10647;51.016;3.720;2022-11-15T00:51:08;30.37;;;18.17;;
20976;SDS011;10647;51.016;3.720;2022-11-15T00:53:35;30.20;;;16.77;;
20976;SDS011;10647;51.016;3.720;2022-11-15T00:56:03;28.17;;;17.30;;
20976;SDS011;10647;51.016;3.720;2022-11-15T00:58:31;32.57;;;18.63;;
20976;SDS011;10647;51.016;3.720;2022-11-15T01:01:10;31.50;;;17.47;;
20976;SDS011;10647;51.016;3.720;2022-11-15T01:03:41;32.03;;;17.53;;
20976;SDS011;10647;51.016;3.720;2022-11-15T01:06:08;30.77;;;17.87;;
20976;SDS011;10647;51.016;3.720;2022-11-15T01:08:40;33.10;;;19.93;;
20976;SDS011;10647;51.016;3.720;2022-11-15T01:11:08;31.37;;;18.57;;
20976;SDS011;10647;51.016;3.720;2022-11-15T01:13:38;30.97;;;16.97;;
20976;SDS011;10647;51.016;3.720;2022-11-15T01:16:10;30.43;;;16.77;;
20976;SDS011;10647;51.016;3.720;2022-11-15T01:18:42;34.00;;;18.47;;
20976;SDS011;10647;51.016;3.720;2022-11-15T01:21:12;31.27;;;17.33;;
20976;SDS011;10647;51.016;3.720;2022-11-15T01:23:41;32.57;;;17.83;;
20976;SDS011;10647;51.016;3.720;2022-11-15T01:26:14;27.13;;;16.33;;
20976;SDS011;10647;51.016;3.720;2022-11-15T01:28:43;28.40;;;16.47;;
20976;SDS011;10647;51.016;3.720;2022-11-15T01:31:13;26.87;;;15.57;;
20976;SDS011;10647;51.016;3.720;2022-11-15T01:33:45;29.57;;;15.53;;
20976;SDS011;10647;51.016;3.720;2022-11-15T01:36:20;33.33;;;15.53;;
20976;SDS011;10647;51.016;3.720;2022-11-15T01:38:55;29.13;;;15.83;;
20976;SDS011;10647;51.016;3.720;2022-11-15T01:41:28;26.23;;;14.10;;
20976;SDS011;10647;51.016;3.720;2022-11-15T01:47:21;27.83;;;15.60;;
20976;SDS011;10647;51.016;3.720;2022-11-15T01:50:07;26.77;;;14.97;;
20976;SDS011;10647;51.016;3.720;2022-11-15T01:52:36;26.70;;;13.90;;
20976;SDS011;10647;51.016;3.720;2022-11-15T01:55:26;29.37;;;14.93;;
20976;SDS011;10647;51.016;3.720;2022-11-15T01:58:20;24.23;;;13.07;;
20976;SDS011;10647;51.016;3.720;2022-11-15T02:00:48;26.83;;;13.63;;
20976;SDS011;10647;51.016;3.720;2022-11-15T02:05:51;26.57;;;12.13;;
20976;SDS011;10647;51.016;3.720;2022-11-15T02:08:19;29.30;;;12.93;;
20976;SDS011;10647;51.016;3.720;2022-11-15T02:10:47;29.83;;;12.10;;
20976;SDS011;10647;51.016;3.720;2022-11-15T02:13:14;28.70;;;12.17;;
20976;SDS011;10647;51.016;3.720;2022-11-15T02:15:51;22.33;;;11.57;;
20976;SDS011;10647;51.016;3.720;2022-11-15T02:18:27;21.97;;;11.70;;
20976;SDS011;10647;51.016;3.720;2022-11-15T02:21:05;21.10;;;11.40;;
20976;SDS011;10647;51.016;3.720;2022-11-15T02:32:08;20.83;;;10.10;;
20976;SDS011;10647;51.016;3.720;2022-11-15T02:34:47;21.87;;;9.93;;
20976;SDS011;10647;51.016;3.720;2022-11-15T02:37:29;18.03;;;8.37;;
20976;SDS011;10647;51.016;3.720;2022-11-15T02:43:23;19.43;;;8.67;;
20976;SDS011;10647;51.016;3.720;2022-11-15T02:48:53;13.57;;;7.77;;
20976;SDS011;10647;51.016;3.720;2022-11-15T02:51:26;15.83;;;7.47;;
20976;SDS011;10647;51.016;3.720;2022-11-15T02:53:54;17.43;;;8.07;;
20976;SDS011;10647;51.016;3.720;2022-11-15T02:56:21;18.80;;;7.77;;
20976;SDS011;10647;51.016;3.720;2022-11-15T03:07:54;14.07;;;7.37;;
20976;SDS011;10647;51.016;3.720;2022-11-15T03:16:16;14.83;;;6.90;;
20976;SDS011;10647;51.016;3.720;2022-11-15T03:18:50;15.60;;;6.90;;
20976;SDS011;10647;51.016;3.720;2022-11-15T03:21:22;14.67;;;7.03;;
20976;SDS011;10647;51.016;3.720;2022-11-15T03:23:52;12.10;;;5.93;;
20976;SDS011;10647;51.016;3.720;2022-11-15T03:26:25;13.17;;;6.43;;
20976;SDS011;10647;51.016;3.720;2022-11-15T03:29:14;16.20;;;6.60;;
20976;SDS011;10647;51.016;3.720;2022-11-15T03:31:44;15.90;;;6.23;;
20976;SDS011;10647;51.016;3.720;2022-11-15T03:34:26;12.00;;;6.10;;
20976;SDS011;10647;51.016;3.720;2022-11-15T03:37:17;12.00;;;5.83;;
20976;SDS011;10647;51.016;3.720;2022-11-15T03:46:16;14.07;;;6.37;;
20976;SDS011;10647;51.016;3.720;2022-11-15T03:48:50;18.50;;;6.57;;
20976;SDS011;10647;51.016;3.720;2022-11-15T03:54:07;14.30;;;6.70;;
20976;SDS011;10647;51.016;3.720;2022-11-15T03:56:34;15.33;;;6.07;;
20976;SDS011;10647;51.016;3.720;2022-11-15T03:59:02;15.50;;;6.13;;
20976;SDS011;10647;51.016;3.720;2022-11-15T04:01:29;17.17;;;6.00;;
20976;SDS011;10647;51.016;3.720;2022-11-15T04:03:57;12.53;;;5.53;;
20976;SDS011;10647;51.016;3.720;2022-11-15T04:06:24;15.00;;;6.00;;
20976;SDS011;10647;51.016;3.720;2022-11-15T04:08:53;15.27;;;6.03;;
20976;SDS011;10647;51.016;3.720;2022-11-15T04:11:20;13.03;;;6.40;;
20976;SDS011;10647;51.016;3.720;2022-11-15T04:13:48;15.30;;;6.37;;
20976;SDS011;10647;51.016;3.720;2022-11-15T04:16:15;17.57;;;6.20;;
20976;SDS011;10647;51.016;3.720;2022-11-15T04:18:43;12.57;;;5.93;;
20976;SDS011;10647;51.016;3.720;2022-11-15T04:21:10;13.60;;;6.57;;
20976;SDS011;10647;51.016;3.720;2022-11-15T04:23:56;15.37;;;6.30;;
20976;SDS011;10647;51.016;3.720;2022-11-15T04:26:31;13.63;;;5.87;;
20976;SDS011;10647;51.016;3.720;2022-11-15T04:28:59;14.27;;;5.90;;
20976;SDS011;10647;51.016;3.720;2022-11-15T04:31:44;14.43;;;6.03;;
20976;SDS011;10647;51.016;3.720;2022-11-15T04:34:12;12.77;;;5.70;;
20976;SDS011;10647;51.016;3.720;2022-11-15T04:36:39;13.23;;;5.57;;
20976;SDS011;10647;51.016;3.720;2022-11-15T04:39:25;14.67;;;5.53;;
20976;SDS011;10647;51.016;3.720;2022-11-15T04:41:52;13.97;;;5.30;;
20976;SDS011;10647;51.016;3.720;2022-11-15T04:44:20;14.83;;;4.93;;
20976;SDS011;10647;51.016;3.720;2022-11-15T04:46:47;13.17;;;5.17;;
20976;SDS011;10647;51.016;3.720;2022-11-15T04:49:15;12.60;;;4.73;;
20976;SDS011;10647;51.016;3.720;2022-11-15T04:51:42;9.77;;;4.93;;
20976;SDS011;10647;51.016;3.720;2022-11-15T04:54:10;9.27;;;4.53;;
20976;SDS011;10647;51.016;3.720;2022-11-15T04:56:37;14.27;;;5.10;;
20976;SDS011;10647;51.016;3.720;2022-11-15T04:59:05;12.43;;;4.60;;
20976;SDS011;10647;51.016;3.720;2022-11-15T05:01:32;12.43;;;5.13;;
20976;SDS011;10647;51.016;3.720;2022-11-15T05:04:00;10.87;;;4.73;;
20976;SDS011;10647;51.016;3.720;2022-11-15T05:06:47;10.97;;;4.87;;
20976;SDS011;10647;51.016;3.720;2022-11-15T05:09:21;19.67;;;5.90;;
20976;SDS011;10647;51.016;3.720;2022-11-15T05:11:46;14.73;;;5.30;;
20976;SDS011;10647;51.016;3.720;2022-11-15T05:14:13;13.43;;;5.50;;
20976;SDS011;10647;51.016;3.720;2022-11-15T05:16:41;15.13;;;5.67;;
20976;SDS011;10647;51.016;3.720;2022-11-15T05:19:10;17.83;;;5.47;;
20976;SDS011;10647;51.016;3.720;2022-11-15T05:21:37;18.23;;;5.43;;
20976;SDS011;10647;51.016;3.720;2022-11-15T05:24:05;17.07;;;5.57;;
20976;SDS011;10647;51.016;3.720;2022-11-15T05:26:33;12.80;;;5.63;;
20976;SDS011;10647;51.016;3.720;2022-11-15T05:29:00;16.13;;;5.57;;
20976;SDS011;10647;51.016;3.720;2022-11-15T05:31:28;14.83;;;5.67;;
20976;SDS011;10647;51.016;3.720;2022-11-15T05:33:56;19.00;;;5.83;;
20976;SDS011;10647;51.016;3.720;2022-11-15T05:36:27;16.10;;;4.50;;
20976;SDS011;10647;51.016;3.720;2022-11-15T05:39:18;13.10;;;4.87;;
20976;SDS011;10647;51.016;3.720;2022-11-15T05:41:48;12.77;;;5.03;;
20976;SDS011;10647;51.016;3.720;2022-11-15T05:44:19;16.97;;;4.93;;
20976;SDS011;10647;51.016;3.720;2022-11-15T05:46:49;10.77;;;4.60;;
20976;SDS011;10647;51.016;3.720;2022-11-15T05:49:21;11.83;;;4.83;;
20976;SDS011;10647;51.016;3.720;2022-11-15T05:52:09;11.13;;;4.80;;
20976;SDS011;10647;51.016;3.720;2022-11-15T05:54:39;13.13;;;5.03;;
20976;SDS011;10647;51.016;3.720;2022-11-15T05:57:13;13.23;;;5.50;;
20976;SDS011;10647;51.016;3.720;2022-11-15T05:59:40;17.00;;;5.20;;
20976;SDS011;10647;51.016;3.720;2022-11-15T06:02:09;17.37;;;5.80;;
20976;SDS011;10647;51.016;3.720;2022-11-15T06:04:37;15.43;;;6.27;;
20976;SDS011;10647;51.016;3.720;2022-11-15T06:07:05;15.63;;;6.63;;
20976;SDS011;10647;51.016;3.720;2022-11-15T06:09:32;22.73;;;7.03;;
20976;SDS011;10647;51.016;3.720;2022-11-15T06:12:00;19.30;;;7.73;;
20976;SDS011;10647;51.016;3.720;2022-11-15T06:14:27;18.83;;;7.77;;
20976;SDS011;10647;51.016;3.720;2022-11-15T06:19:42;17.47;;;7.23;;
20976;SDS011;10647;51.016;3.720;2022-11-15T06:22:11;19.60;;;8.10;;
20976;SDS011;10647;51.016;3.720;2022-11-15T06:24:44;17.07;;;7.10;;
20976;SDS011;10647;51.016;3.720;2022-11-15T06:32:32;19.90;;;8.80;;
20976;SDS011;10647;51.016;3.720;2022-11-15T06:40:15;16.00;;;8.33;;
20976;SDS011;10647;51.016;3.720;2022-11-15T06:42:42;21.27;;;9.00;;
20976;SDS011;10647;51.016;3.720;2022-11-15T06:45:16;18.57;;;9.63;;
20976;SDS011;10647;51.016;3.720;2022-11-15T06:47:46;23.50;;;9.10;;
20976;SDS011;10647;51.016;3.720;2022-11-15T06:50:14;20.90;;;9.00;;
20976;SDS011;10647;51.016;3.720;2022-11-15T06:52:42;46.07;;;15.97;;
20976;SDS011;10647;51.016;3.720;2022-11-15T06:55:09;52.33;;;18.50;;
20976;SDS011;10647;51.016;3.720;2022-11-15T06:57:37;44.43;;;16.07;;
20976;SDS011;10647;51.016;3.720;2022-11-15T07:00:06;32.27;;;12.30;;
20976;SDS011;10647;51.016;3.720;2022-11-15T07:02:34;28.97;;;10.50;;
20976;SDS011;10647;51.016;3.720;2022-11-15T07:05:05;27.73;;;10.13;;
20976;SDS011;10647;51.016;3.720;2022-11-15T07:07:33;24.60;;;8.37;;
20976;SDS011;10647;51.016;3.720;2022-11-15T07:10:04;15.23;;;7.73;;
20976;SDS011;10647;51.016;3.720;2022-11-15T07:12:32;15.97;;;6.83;;
20976;SDS011;10647;51.016;3.720;2022-11-15T07:15:02;16.73;;;7.13;;
20976;SDS011;10647;51.016;3.720;2022-11-15T07:17:31;14.33;;;6.93;;
20976;SDS011;10647;51.016;3.720;2022-11-15T07:19:59;12.83;;;6.23;;
20976;SDS011;10647;51.016;3.720;2022-11-15T07:22:28;14.63;;;6.77;;
20976;SDS011;10647;51.016;3.720;2022-11-15T07:24:56;27.37;;;10.77;;
20976;SDS011;10647;51.016;3.720;2022-11-15T07:27:23;15.97;;;6.87;;
20976;SDS011;10647;51.016;3.720;2022-11-15T07:29:52;13.03;;;6.00;;
20976;SDS011;10647;51.016;3.720;2022-11-15T07:32:20;24.00;;;10.00;;
20976;SDS011;10647;51.016;3.720;2022-11-15T07:34:51;26.70;;;10.30;;
20976;SDS011;10647;51.016;3.720;2022-11-15T07:37:18;29.90;;;10.33;;
20976;SDS011;10647;51.016;3.720;2022-11-15T07:39:47;14.40;;;5.93;;
20976;SDS011;10647;51.016;3.720;2022-11-15T07:45:20;27.77;;;10.20;;
20976;SDS011;10647;51.016;3.720;2022-11-15T07:47:50;16.57;;;8.13;;
20976;SDS011;10647;51.016;3.720;2022-11-15T07:50:18;27.93;;;10.90;;
20976;SDS011;10647;51.016;3.720;2022-11-15T07:52:52;24.97;;;9.93;;
20976;SDS011;10647;51.016;3.720;2022-11-15T07:55:23;26.97;;;8.97;;
20976;SDS011;10647;51.016;3.720;2022-11-15T07:57:51;22.77;;;8.00;;
20976;SDS011;10647;51.016;3.720;2022-11-15T08:00:18;17.17;;;7.90;;
20976;SDS011;10647;51.016;3.720;2022-11-15T08:05:16;22.00;;;7.27;;
20976;SDS011;10647;51.016;3.720;2022-11-15T08:07:44;16.53;;;5.90;;
20976;SDS011;10647;51.016;3.720;2022-11-15T08:10:17;13.23;;;5.90;;
20976;SDS011;10647;51.016;3.720;2022-11-15T08:12:46;11.50;;;5.33;;
20976;SDS011;10647;51.016;3.720;2022-11-15T08:15:19;14.67;;;6.20;;
20976;SDS011;10647;51.016;3.720;2022-11-15T08:17:47;17.70;;;6.20;;
20976;SDS011;10647;51.016;3.720;2022-11-15T08:20:17;15.87;;;5.93;;
20976;SDS011;10647;51.016;3.720;2022-11-15T08:22:45;15.13;;;4.83;;
20976;SDS011;10647;51.016;3.720;2022-11-15T08:25:13;11.63;;;4.60;;
20976;SDS011;10647;51.016;3.720;2022-11-15T08:27:41;13.43;;;4.23;;
20976;SDS011;10647;51.016;3.720;2022-11-15T08:30:12;7.40;;;3.40;;
20976;SDS011;10647;51.016;3.720;2022-11-15T08:32:58;17.87;;;5.93;;
20976;SDS011;10647;51.016;3.720;2022-11-15T08:35:28;23.27;;;7.80;;
20976;SDS011;10647;51.016;3.720;2022-11-15T08:37:55;14.63;;;5.23;;
20976;SDS011;10647;51.016;3.720;2022-11-15T08:40:23;11.93;;;4.97;;
20976;SDS011;10647;51.016;3.720;2022-11-15T08:42:52;19.53;;;6.97;;
20976;SDS011;10647;51.016;3.720;2022-11-15T08:45:22;15.00;;;5.23;;
20976;SDS011;10647;51.016;3.720;2022-11-15T08:47:55;19.03;;;5.53;;
20976;SDS011;10647;51.016;3.720;2022-11-15T08:50:24;30.13;;;9.27;;
20976;SDS011;10647;51.016;3.720;2022-11-15T08:52:52;31.77;;;7.53;;
20976;SDS011;10647;51.016;3.720;2022-11-15T08:55:25;21.10;;;5.20;;
20976;SDS011;10647;51.016;3.720;2022-11-15T08:57:52;11.93;;;5.17;;
20976;SDS011;10647;51.016;3.720;2022-11-15T09:00:20;20.47;;;5.93;;
20976;SDS011;10647;51.016;3.720;2022-11-15T09:02:47;13.67;;;4.50;;
20976;SDS011;10647;51.016;3.720;2022-11-15T09:05:15;15.00;;;4.80;;
20976;SDS011;10647;51.016;3.720;2022-11-15T09:07:44;8.50;;;3.00;;
20976;SDS011;10647;51.016;3.720;2022-11-15T09:10:13;14.20;;;3.10;;
20976;SDS011;10647;51.016;3.720;2022-11-15T09:12:42;4.90;;;2.47;;
20976;SDS011;10647;51.016;3.720;2022-11-15T09:15:10;10.93;;;3.00;;
20976;SDS011;10647;51.016;3.720;2022-11-15T09:17:37;7.43;;;2.13;;
20976;SDS011;10647;51.016;3.720;2022-11-15T09:20:05;8.27;;;2.20;;
20976;SDS011;10647;51.016;3.720;2022-11-15T09:22:35;7.40;;;2.03;;
20976;SDS011;10647;51.016;3.720;2022-11-15T09:25:04;8.23;;;2.00;;
20976;SDS011;10647;51.016;3.720;2022-11-15T09:27:32;7.87;;;2.40;;
20976;SDS011;10647;51.016;3.720;2022-11-15T09:30:02;8.33;;;2.00;;
20976;SDS011;10647;51.016;3.720;2022-11-15T09:32:30;6.27;;;1.60;;
20976;SDS011;10647;51.016;3.720;2022-11-15T09:34:57;8.07;;;2.03;;
20976;SDS011;10647;51.016;3.720;2022-11-15T09:37:25;8.93;;;2.13;;
20976;SDS011;10647;51.016;3.720;2022-11-15T09:39:52;6.40;;;2.10;;
20976;SDS011;10647;51.016;3.720;2022-11-15T09:45:22;13.57;;;3.67;;
20976;SDS011;10647;51.016;3.720;2022-11-15T09:53:40;19.67;;;3.60;;
20976;SDS011;10647;51.016;3.720;2022-11-15T09:58:59;27.30;;;4.77;;
20976;SDS011;10647;51.016;3.720;2022-11-15T10:05:04;13.70;;;2.83;;
20976;SDS011;10647;51.016;3.720;2022-11-15T10:10:27;8.43;;;2.53;;
20976;SDS011;10647;51.016;3.720;2022-11-15T10:12:56;9.97;;;2.20;;
20976;SDS011;10647;51.016;3.720;2022-11-15T10:15:44;10.20;;;2.70;;
20976;SDS011;10647;51.016;3.720;2022-11-15T10:18:17;11.53;;;2.00;;
20976;SDS011;10647;51.016;3.720;2022-11-15T10:20:59;13.73;;;2.00;;
20976;SDS011;10647;51.016;3.720;2022-11-15T10:23:31;10.87;;;2.00;;
20976;SDS011;10647;51.016;3.720;2022-11-15T10:25:59;10.23;;;1.90;;
20976;SDS011;10647;51.016;3.720;2022-11-15T10:28:30;7.10;;;1.53;;
20976;SDS011;10647;51.016;3.720;2022-11-15T10:39:32;6.20;;;2.07;;
20976;SDS011;10647;51.016;3.720;2022-11-15T10:44:53;8.57;;;1.57;;
20976;SDS011;10647;51.016;3.720;2022-11-15T10:47:27;9.30;;;2.00;;
20976;SDS011;10647;51.016;3.720;2022-11-15T10:49:58;4.87;;;1.60;;
20976;SDS011;10647;51.016;3.720;2022-11-15T10:52:43;18.03;;;5.57;;
20976;SDS011;10647;51.016;3.720;2022-11-15T10:57:48;23.57;;;6.50;;
20976;SDS011;10647;51.016;3.720;2022-11-15T11:06:09;18.00;;;4.73;;
20976;SDS011;10647;51.016;3.720;2022-11-15T11:08:58;9.90;;;1.73;;
20976;SDS011;10647;51.016;3.720;2022-11-15T11:14:37;8.10;;;1.60;;
20976;SDS011;10647;51.016;3.720;2022-11-15T11:22:37;15.33;;;1.60;;
20976;SDS011;10647;51.016;3.720;2022-11-15T11:34:19;10.23;;;1.60;;
20976;SDS011;10647;51.016;3.720;2022-11-15T11:42:37;9.47;;;1.50;;
20976;SDS011;10647;51.016;3.720;2022-11-15T11:45:15;4.00;;;1.47;;
20976;SDS011;10647;51.016;3.720;2022-11-15T11:47:46;6.50;;;1.40;;
20976;SDS011;10647;51.016;3.720;2022-11-15T11:50:20;10.73;;;1.13;;
20976;SDS011;10647;51.016;3.720;2022-11-15T11:52:57;12.50;;;1.40;;
20976;SDS011;10647;51.016;3.720;2022-11-15T11:55:50;5.77;;;1.30;;
20976;SDS011;10647;51.016;3.720;2022-11-15T11:58:15;10.90;;;2.53;;
20976;SDS011;10647;51.016;3.720;2022-11-15T12:00:46;10.93;;;1.87;;
20976;SDS011;10647;51.016;3.720;2022-11-15T12:03:41;6.87;;;1.60;;
20976;SDS011;10647;51.016;3.720;2022-11-15T12:14:27;4.17;;;1.63;;
20976;SDS011;10647;51.016;3.720;2022-11-15T12:17:00;6.73;;;1.97;;
20976;SDS011;10647;51.016;3.720;2022-11-15T12:19:28;7.00;;;1.33;;
20976;SDS011;10647;51.016;3.720;2022-11-15T12:22:00;10.17;;;1.90;;
20976;SDS011;10647;51.016;3.720;2022-11-15T12:24:40;6.23;;;1.50;;
20976;SDS011;10647;51.016;3.720;2022-11-15T12:27:36;9.97;;;1.40;;
20976;SDS011;10647;51.016;3.720;2022-11-15T12:30:16;10.37;;;1.40;;
20976;SDS011;10647;51.016;3.720;2022-11-15T12:32:53;5.10;;;1.40;;
20976;SDS011;10647;51.016;3.720;2022-11-15T12:41:18;8.43;;;1.70;;
20976;SDS011;10647;51.016;3.720;2022-11-15T12:43:47;7.23;;;1.30;;
20976;SDS011;10647;51.016;3.720;2022-11-15T12:57:32;6.60;;;1.30;;
20976;SDS011;10647;51.016;3.720;2022-11-15T12:59:53;3.77;;;1.30;;
20976;SDS011;10647;51.016;3.720;2022-11-15T13:02:40;9.03;;;1.60;;
20976;SDS011;10647;51.016;3.720;2022-11-15T13:12:53;8.53;;;1.63;;
20976;SDS011;10647;51.016;3.720;2022-11-15T13:15:35;5.97;;;1.20;;
20976;SDS011;10647;51.016;3.720;2022-11-15T13:18:33;4.87;;;1.20;;
20976;SDS011;10647;51.016;3.720;2022-11-15T13:21:04;7.60;;;1.60;;
20976;SDS011;10647;51.016;3.720;2022-11-15T13:26:14;5.93;;;1.40;;
20976;SDS011;10647;51.016;3.720;2022-11-15T13:28:46;7.30;;;1.70;;
20976;SDS011;10647;51.016;3.720;2022-11-15T13:31:29;5.70;;;1.50;;
20976;SDS011;10647;51.016;3.720;2022-11-15T13:34:16;5.90;;;2.00;;
20976;SDS011;10647;51.016;3.720;2022-11-15T13:36:45;7.60;;;1.50;;
20976;SDS011;10647;51.016;3.720;2022-11-15T13:42:02;8.23;;;1.37;;
20976;SDS011;10647;51.016;3.720;2022-11-15T13:47:28;5.27;;;1.53;;
20976;SDS011;10647;51.016;3.720;2022-11-15T13:50:17;5.57;;;1.50;;
20976;SDS011;10647;51.016;3.720;2022-11-15T13:52:46;4.07;;;1.30;;
20976;SDS011;10647;51.016;3.720;2022-11-15T13:55:18;3.97;;;1.20;;
20976;SDS011;10647;51.016;3.720;2022-11-15T13:57:49;4.67;;;1.23;;
20976;SDS011;10647;51.016;3.720;2022-11-15T14:00:41;4.87;;;1.40;;
20976;SDS011;10647;51.016;3.720;2022-11-15T14:06:10;5.97;;;1.33;;
20976;SDS011;10647;51.016;3.720;2022-11-15T14:08:41;6.13;;;1.50;;
20976;SDS011;10647;51.016;3.720;2022-11-15T14:14:04;4.83;;;1.53;;
20976;SDS011;10647;51.016;3.720;2022-11-15T14:22:23;5.23;;;1.60;;
20976;SDS011;10647;51.016;3.720;2022-11-15T14:24:44;5.77;;;1.87;;
20976;SDS011;10647;51.016;3.720;2022-11-15T14:27:24;5.10;;;1.80;;
20976;SDS011;10647;51.016;3.720;2022-11-15T14:30:17;4.37;;;1.63;;
20976;SDS011;10647;51.016;3.720;2022-11-15T14:33:11;5.93;;;2.00;;
20976;SDS011;10647;51.016;3.720;2022-11-15T14:38:28;4.80;;;2.00;;
20976;SDS011;10647;51.016;3.720;2022-11-15T14:43:50;9.20;;;2.33;;
20976;SDS011;10647;51.016;3.720;2022-11-15T14:46:22;4.53;;;1.83;;
20976;SDS011;10647;51.016;3.720;2022-11-15T14:48:49;9.83;;;2.10;;
20976;SDS011;10647;51.016;3.720;2022-11-15T14:51:22;5.77;;;2.50;;
20976;SDS011;10647;51.016;3.720;2022-11-15T14:56:22;11.30;;;3.50;;
20976;SDS011;10647;51.016;3.720;2022-11-15T14:58:53;12.23;;;4.13;;
20976;SDS011;10647;51.016;3.720;2022-11-15T15:01:24;11.27;;;3.83;;
20976;SDS011;10647;51.016;3.720;2022-11-15T15:03:53;9.23;;;3.13;;
20976;SDS011;10647;51.016;3.720;2022-11-15T15:06:26;8.17;;;3.47;;
20976;SDS011;10647;51.016;3.720;2022-11-15T15:09:00;21.80;;;6.47;;
20976;SDS011;10647;51.016;3.720;2022-11-15T15:11:31;8.70;;;3.60;;
20976;SDS011;10647;51.016;3.720;2022-11-15T15:16:41;10.37;;;3.87;;
20976;SDS011;10647;51.016;3.720;2022-11-15T15:19:10;9.47;;;3.40;;
20976;SDS011;10647;51.016;3.720;2022-11-15T15:21:38;9.13;;;3.87;;
20976;SDS011;10647;51.016;3.720;2022-11-15T15:24:11;8.93;;;4.40;;
20976;SDS011;10647;51.016;3.720;2022-11-15T15:26:54;10.10;;;5.07;;
20976;SDS011;10647;51.016;3.720;2022-11-15T15:29:28;8.70;;;3.80;;
20976;SDS011;10647;51.016;3.720;2022-11-15T15:31:56;10.23;;;4.37;;
20976;SDS011;10647;51.016;3.720;2022-11-15T15:34:23;12.13;;;4.50;;
20976;SDS011;10647;51.016;3.720;2022-11-15T15:39:36;11.47;;;4.77;;
20976;SDS011;10647;51.016;3.720;2022-11-15T15:42:06;12.63;;;4.80;;
20976;SDS011;10647;51.016;3.720;2022-11-15T15:44:41;10.73;;;5.00;;
20976;SDS011;10647;51.016;3.720;2022-11-15T15:47:13;13.10;;;5.13;;
20976;SDS011;10647;51.016;3.720;2022-11-15T15:49:43;11.87;;;5.50;;
20976;SDS011;10647;51.016;3.720;2022-11-15T15:52:11;11.33;;;6.00;;
20976;SDS011;10647;51.016;3.720;2022-11-15T15:54:46;14.40;;;5.90;;
20976;SDS011;10647;51.016;3.720;2022-11-15T15:57:14;24.50;;;8.50;;
20976;SDS011;10647;51.016;3.720;2022-11-15T15:59:43;15.93;;;5.87;;
20976;SDS011;10647;51.016;3.720;2022-11-15T16:02:12;16.97;;;6.90;;
20976;SDS011;10647;51.016;3.720;2022-11-15T16:04:42;15.60;;;6.60;;
20976;SDS011;10647;51.016;3.720;2022-11-15T16:07:21;12.20;;;6.13;;
20976;SDS011;10647;51.016;3.720;2022-11-15T16:12:45;18.37;;;7.13;;
20976;SDS011;10647;51.016;3.720;2022-11-15T16:15:13;34.90;;;10.40;;
20976;SDS011;10647;51.016;3.720;2022-11-15T16:17:44;14.03;;;6.43;;
20976;SDS011;10647;51.016;3.720;2022-11-15T16:20:27;11.87;;;5.73;;
20976;SDS011;10647;51.016;3.720;2022-11-15T16:23:14;10.37;;;5.50;;
20976;SDS011;10647;51.016;3.720;2022-11-15T16:25:46;8.80;;;4.90;;
20976;SDS011;10647;51.016;3.720;2022-11-15T16:28:32;7.67;;;4.70;;
20976;SDS011;10647;51.016;3.720;2022-11-15T16:31:01;11.13;;;5.50;;
20976;SDS011;10647;51.016;3.720;2022-11-15T16:33:49;7.70;;;5.10;;
20976;SDS011;10647;51.016;3.720;2022-11-15T16:36:29;7.53;;;4.53;;
20976;SDS011;10647;51.016;3.720;2022-11-15T16:41:46;10.27;;;4.80;;
20976;SDS011;10647;51.016;3.720;2022-11-15T16:44:15;8.43;;;4.60;;
20976;SDS011;10647;51.016;3.720;2022-11-15T16:46:44;14.73;;;4.93;;
20976;SDS011;10647;51.016;3.720;2022-11-15T16:49:13;10.60;;;4.90;;
20976;SDS011;10647;51.016;3.720;2022-11-15T16:51:41;9.53;;;5.30;;
20976;SDS011;10647;51.016;3.720;2022-11-15T16:54:11;8.20;;;5.00;;
20976;SDS011;10647;51.016;3.720;2022-11-15T16:56:41;12.37;;;5.43;;
20976;SDS011;10647;51.016;3.720;2022-11-15T16:59:10;8.57;;;5.30;;
20976;SDS011;10647;51.016;3.720;2022-11-15T17:01:39;10.87;;;5.10;;
20976;SDS011;10647;51.016;3.720;2022-11-15T17:04:08;7.50;;;5.13;;
20976;SDS011;10647;51.016;3.720;2022-11-15T17:06:40;7.80;;;5.43;;
20976;SDS011;10647;51.016;3.720;2022-11-15T17:09:10;9.03;;;5.33;;
20976;SDS011;10647;51.016;3.720;2022-11-15T17:11:48;10.23;;;5.03;;
20976;SDS011;10647;51.016;3.720;2022-11-15T17:14:16;12.70;;;5.00;;
20976;SDS011;10647;51.016;3.720;2022-11-15T17:16:44;10.60;;;5.03;;
20976;SDS011;10647;51.016;3.720;2022-11-15T17:19:12;12.13;;;5.67;;
20976;SDS011;10647;51.016;3.720;2022-11-15T17:21:44;11.20;;;5.70;;
20976;SDS011;10647;51.016;3.720;2022-11-15T17:24:14;9.83;;;5.67;;
20976;SDS011;10647;51.016;3.720;2022-11-15T17:26:42;9.80;;;5.50;;
20976;SDS011;10647;51.016;3.720;2022-11-15T17:29:10;10.37;;;5.33;;
20976;SDS011;10647;51.016;3.720;2022-11-15T17:31:37;10.67;;;5.60;;
20976;SDS011;10647;51.016;3.720;2022-11-15T17:34:05;9.03;;;5.40;;
20976;SDS011;10647;51.016;3.720;2022-11-15T17:36:33;9.77;;;5.37;;
20976;SDS011;10647;51.016;3.720;2022-11-15T17:39:01;9.60;;;5.73;;
20976;SDS011;10647;51.016;3.720;2022-11-15T17:41:29;11.13;;;5.97;;
20976;SDS011;10647;51.016;3.720;2022-11-15T17:43:58;9.03;;;4.87;;
20976;SDS011;10647;51.016;3.720;2022-11-15T17:46:28;8.77;;;5.97;;
20976;SDS011;10647;51.016;3.720;2022-11-15T17:48:56;10.00;;;5.20;;
20976;SDS011;10647;51.016;3.720;2022-11-15T17:51:24;9.47;;;5.67;;
20976;SDS011;10647;51.016;3.720;2022-11-15T17:53:51;9.90;;;5.70;;
20976;SDS011;10647;51.016;3.720;2022-11-15T17:56:21;11.73;;;6.13;;
20976;SDS011;10647;51.016;3.720;2022-11-15T17:58:56;10.37;;;5.70;;
20976;SDS011;10647;51.016;3.720;2022-11-15T18:04:12;9.10;;;5.37;;
20976;SDS011;10647;51.016;3.720;2022-11-15T18:06:40;9.10;;;5.00;;
20976;SDS011;10647;51.016;3.720;2022-11-15T18:09:08;8.27;;;5.17;;
20976;SDS011;10647;51.016;3.720;2022-11-15T18:11:38;8.87;;;5.80;;
20976;SDS011;10647;51.016;3.720;2022-11-15T18:14:09;15.73;;;7.30;;
20976;SDS011;10647;51.016;3.720;2022-11-15T18:16:39;16.40;;;8.17;;
20976;SDS011;10647;51.016;3.720;2022-11-15T18:19:06;14.53;;;7.10;;
20976;SDS011;10647;51.016;3.720;2022-11-15T18:21:36;17.20;;;7.60;;